createdAt,value
2022-09-07T00:00:43.925Z,22.56
2022-09-07T00:03:11.216Z,22.58
2022-09-07T00:05:43.173Z,22.58
2022-09-07T00:08:10.747Z,22.56
2022-09-07T00:10:38.608Z,22.57
2022-09-07T00:13:07.440Z,22.54
2022-09-07T00:15:39.424Z,22.49
2022-09-07T00:18:06.772Z,22.43
2022-09-07T00:20:33.987Z,22.40
2022-09-07T00:23:01.251Z,22.39
2022-09-07T00:25:31.801Z,22.38
2022-09-07T00:27:59.455Z,22.37
2022-09-07T00:30:26.867Z,22.38
2022-09-07T00:32:54.110Z,22.42
2022-09-07T00:35:21.393Z,22.47
2022-09-07T00:37:48.723Z,22.50
2022-09-07T00:40:16.142Z,22.53
2022-09-07T00:42:43.388Z,22.55
2022-09-07T00:45:17.823Z,22.54
2022-09-07T00:47:55.586Z,22.60
2022-09-07T00:50:31.605Z,22.61
2022-09-07T00:53:15.913Z,22.65
2022-09-07T00:55:46.096Z,22.63
2022-09-07T00:58:13.813Z,22.58
2022-09-07T01:00:43.435Z,22.55
2022-09-07T01:03:11.408Z,22.49
2022-09-07T01:05:50.688Z,22.52
2022-09-07T01:08:18.432Z,22.43
2022-09-07T01:10:46.851Z,22.35
2022-09-07T01:13:15.154Z,22.34
2022-09-07T01:16:24.034Z,22.26
2022-09-07T01:19:24.411Z,22.25
2022-09-07T01:22:06.752Z,22.17
2022-09-07T01:25:03.020Z,22.18
2022-09-07T01:28:08.782Z,22.10
2022-09-07T01:30:38.544Z,22.09
2022-09-07T01:33:05.733Z,22.12
2022-09-07T01:35:35.797Z,22.09
2022-09-07T01:38:08.068Z,22.06
2022-09-07T01:41:00.149Z,22.08
2022-09-07T01:43:52.364Z,22.03
2022-09-07T01:46:31.942Z,21.96
2022-09-07T01:49:06.282Z,21.93
2022-09-07T01:51:37.025Z,21.86
2022-09-07T01:54:14.068Z,21.85
2022-09-07T01:56:46.744Z,21.84
2022-09-07T01:59:29.028Z,21.83
2022-09-07T02:02:04.177Z,21.80
2022-09-07T02:04:37.675Z,21.76
2022-09-07T02:07:04.887Z,21.80
2022-09-07T02:09:47.104Z,21.84
2022-09-07T02:12:22.266Z,21.76
2022-09-07T02:14:57.665Z,21.72
2022-09-07T02:17:48.971Z,21.71
2022-09-07T02:20:21.123Z,21.64
2022-09-07T02:22:54.210Z,21.57
2022-09-07T02:25:28.936Z,21.56
2022-09-07T02:28:07.881Z,21.52
2022-09-07T02:30:35.194Z,21.40
2022-09-07T02:33:02.495Z,21.44
2022-09-07T02:35:30.026Z,21.39
2022-09-07T02:38:00.668Z,21.34
2022-09-07T02:40:27.977Z,21.35
2022-09-07T02:42:57.117Z,21.31
2022-09-07T02:45:24.395Z,21.26
2022-09-07T02:48:22.831Z,21.20
2022-09-07T02:51:11.274Z,21.10
2022-09-07T02:54:02.592Z,21.16
2022-09-07T02:56:54.389Z,21.04
2022-09-07T02:59:45.816Z,21.05
2022-09-07T03:02:39.630Z,20.97
2022-09-07T03:05:29.147Z,20.97
2022-09-07T03:08:04.195Z,20.92
2022-09-07T03:10:32.158Z,20.91
2022-09-07T03:12:59.436Z,20.89
2022-09-07T03:15:28.094Z,20.88
2022-09-07T03:17:55.406Z,20.86
2022-09-07T03:20:23.476Z,20.91
2022-09-07T03:22:52.361Z,20.94
2022-09-07T03:25:20.010Z,20.94
2022-09-07T03:27:47.349Z,20.98
2022-09-07T03:30:14.786Z,20.93
2022-09-07T03:32:42.112Z,20.89
2022-09-07T03:35:15.527Z,20.83
2022-09-07T03:37:42.999Z,20.83
2022-09-07T03:40:12.203Z,20.80
2022-09-07T03:42:40.225Z,20.81
2022-09-07T03:45:08.184Z,20.85
2022-09-07T03:47:36.941Z,20.86
2022-09-07T03:50:05.646Z,20.72
2022-09-07T03:52:34.445Z,20.66
2022-09-07T03:55:01.801Z,20.71
2022-09-07T03:57:29.073Z,20.78
2022-09-07T03:59:56.296Z,20.70
2022-09-07T04:02:23.645Z,20.76
2022-09-07T04:04:50.889Z,20.74
2022-09-07T04:07:18.148Z,20.75
2022-09-07T04:09:45.411Z,20.70
2022-09-07T04:12:12.640Z,20.60
2022-09-07T04:14:39.971Z,20.57
2022-09-07T04:17:07.289Z,20.54
2022-09-07T04:19:34.657Z,20.58
2022-09-07T04:22:01.964Z,20.59
2022-09-07T04:24:29.433Z,20.65
2022-09-07T04:26:56.664Z,20.68
2022-09-07T04:29:24.012Z,20.70
2022-09-07T04:31:51.238Z,20.72
2022-09-07T04:34:18.561Z,20.73
2022-09-07T04:36:45.845Z,20.69
2022-09-07T04:39:13.132Z,20.69
2022-09-07T04:41:40.383Z,20.66
2022-09-07T04:44:07.712Z,20.63
2022-09-07T04:46:36.730Z,20.62
2022-09-07T04:49:06.984Z,20.61
2022-09-07T04:51:35.743Z,20.58
2022-09-07T04:54:04.273Z,20.61
2022-09-07T04:56:32.805Z,20.58
2022-09-07T04:59:01.727Z,20.55
2022-09-07T05:01:30.085Z,20.52
2022-09-07T05:04:00.576Z,20.54
2022-09-07T05:06:28.523Z,20.55
2022-09-07T05:08:56.613Z,20.58
2022-09-07T05:11:28.650Z,20.62
2022-09-07T05:14:01.235Z,20.59
2022-09-07T05:16:29.776Z,20.59
2022-09-07T05:19:01.995Z,20.60
2022-09-07T05:21:32.071Z,20.90
2022-09-07T05:24:00.655Z,22.10
2022-09-07T05:26:30.191Z,22.12
2022-09-07T05:31:49.939Z,22.57
2022-09-07T05:34:33.178Z,22.72
2022-09-07T05:37:01.399Z,22.88
2022-09-07T05:39:29.255Z,22.96
2022-09-07T05:41:56.838Z,23.07
2022-09-07T05:47:11.622Z,23.21
2022-09-07T05:49:39.031Z,23.31
2022-09-07T05:52:06.853Z,23.37
2022-09-07T05:54:34.195Z,23.43
2022-09-07T05:57:03.552Z,23.17
2022-09-07T05:59:30.948Z,23.33
2022-09-07T06:01:58.329Z,23.21
2022-09-07T06:04:25.904Z,23.27
2022-09-07T06:12:28.489Z,22.91
2022-09-07T06:14:55.797Z,22.74
2022-09-07T06:17:23.112Z,22.58
2022-09-07T06:19:50.379Z,22.65
2022-09-07T06:22:17.643Z,22.76
2022-09-07T06:24:44.899Z,23.20
2022-09-07T06:27:12.181Z,23.03
2022-09-07T06:29:39.404Z,22.76
2022-09-07T06:34:53.970Z,22.79
2022-09-07T06:37:21.274Z,22.73
2022-09-07T06:39:49.404Z,22.55
2022-09-07T06:42:16.845Z,22.48
2022-09-07T06:44:44.888Z,22.51
2022-09-07T06:47:12.165Z,22.43
2022-09-07T06:49:39.460Z,22.47
2022-09-07T06:52:06.795Z,22.74
2022-09-07T06:57:21.516Z,22.58
2022-09-07T06:59:48.772Z,22.68
2022-09-07T07:02:16.028Z,22.77
2022-09-07T07:04:43.302Z,22.74
2022-09-07T07:07:14.743Z,22.84
2022-09-07T07:09:42.127Z,22.90
2022-09-07T07:12:10.609Z,22.95
2022-09-07T07:14:43.979Z,22.97
2022-09-07T07:17:13.192Z,22.95
2022-09-07T07:19:40.457Z,22.89
2022-09-07T07:22:36.008Z,23.03
2022-09-07T07:24:54.961Z,23.08
2022-09-07T07:27:22.522Z,23.22
2022-09-07T07:29:49.986Z,23.27
2022-09-07T07:32:17.239Z,23.41
2022-09-07T07:34:44.527Z,23.52
2022-09-07T07:37:11.772Z,23.30
2022-09-07T07:42:26.656Z,23.57
2022-09-07T07:47:59.668Z,23.68
2022-09-07T07:50:34.632Z,23.53
2022-09-07T07:55:49.469Z,23.52
2022-09-07T07:58:17.201Z,23.73
2022-09-07T08:00:54.296Z,23.86
2022-09-07T08:03:24.605Z,23.98
2022-09-07T08:05:52.174Z,24.08
2022-09-07T08:08:19.753Z,24.01
2022-09-07T08:10:47.743Z,24.11
2022-09-07T08:13:19.112Z,24.08
2022-09-07T08:15:48.463Z,24.05
2022-09-07T08:18:17.321Z,24.10
2022-09-07T08:20:44.755Z,24.14
2022-09-07T08:23:12.150Z,24.31
2022-09-07T08:25:39.410Z,24.39
2022-09-07T08:28:06.814Z,24.61
2022-09-07T08:30:34.023Z,24.70
2022-09-07T08:33:08.678Z,24.61
2022-09-07T08:35:44.177Z,24.61
2022-09-07T08:38:12.872Z,24.62
2022-09-07T08:40:40.135Z,24.74
2022-09-07T08:43:31.664Z,24.96
2022-09-07T08:46:29.596Z,25.03
2022-09-07T08:48:59.681Z,25.07
2022-09-07T08:51:42.062Z,25.16
2022-09-07T08:54:13.775Z,25.12
2022-09-07T08:57:20.653Z,25.05
2022-09-07T08:59:43.656Z,24.85
2022-09-07T09:02:31.920Z,24.82
2022-09-07T09:05:17.703Z,24.94
2022-09-07T09:07:59.779Z,25.16
2022-09-07T09:10:48.210Z,24.98
2022-09-07T09:13:15.375Z,24.92
2022-09-07T09:15:52.996Z,25.06
2022-09-07T09:18:32.399Z,25.05
2022-09-07T09:21:01.358Z,25.23
2022-09-07T09:23:36.748Z,25.45
2022-09-07T09:26:25.691Z,25.31
2022-09-07T09:28:53.575Z,25.33
2022-09-07T09:31:28.157Z,25.50
2022-09-07T09:34:13.999Z,25.53
2022-09-07T09:36:46.151Z,25.72
2022-09-07T09:39:27.989Z,25.69
2022-09-07T09:42:14.520Z,25.68
2022-09-07T09:44:45.785Z,25.63
2022-09-07T09:47:33.099Z,25.76
2022-09-07T09:52:29.302Z,25.99
2022-09-07T09:53:05.434Z,26.22
2022-09-07T09:55:37.037Z,26.20
2022-09-07T10:01:24.005Z,26.28
2022-09-07T10:06:22.047Z,26.46
2022-09-07T10:09:00.144Z,26.52
2022-09-07T10:14:44.256Z,26.63
2022-09-07T10:17:35.638Z,26.54
2022-09-07T10:20:18.859Z,26.56
2022-09-07T10:22:58.383Z,26.52
2022-09-07T10:25:37.696Z,26.66
2022-09-07T10:28:14.370Z,26.77
2022-09-07T10:30:47.618Z,26.72
2022-09-07T10:33:33.507Z,26.83
2022-09-07T10:36:25.640Z,26.94
2022-09-07T10:39:24.957Z,26.94
2022-09-07T10:42:13.861Z,26.90
2022-09-07T10:45:11.260Z,26.91
2022-09-07T10:48:08.072Z,27.07
2022-09-07T10:50:53.299Z,27.14
2022-09-07T10:53:43.812Z,27.29
2022-09-07T10:56:15.382Z,27.36
2022-09-07T10:59:03.953Z,27.33
2022-09-07T11:01:37.860Z,27.11
2022-09-07T11:04:34.955Z,27.34
2022-09-07T11:07:16.171Z,27.27
2022-09-07T11:09:57.898Z,27.14
2022-09-07T11:12:37.665Z,27.44
2022-09-07T11:15:26.316Z,27.51
2022-09-07T11:18:03.513Z,27.59
2022-09-07T11:20:42.567Z,27.56
2022-09-07T11:23:31.204Z,27.57
2022-09-07T11:26:14.399Z,27.54
2022-09-07T11:29:35.980Z,27.70
2022-09-07T11:32:25.189Z,27.75
2022-09-07T11:34:57.604Z,27.79
2022-09-07T11:37:51.096Z,27.89
2022-09-07T11:40:27.148Z,28.03
2022-09-07T11:43:00.749Z,28.07
2022-09-07T11:45:44.320Z,28.07
2022-09-07T11:48:21.455Z,28.07
2022-09-07T11:50:53.927Z,28.07
2022-09-07T11:53:31.597Z,28.14
2022-09-07T11:56:07.452Z,28.02
2022-09-07T11:59:15.665Z,28.06
2022-09-07T12:01:50.615Z,28.35
2022-09-07T12:04:39.999Z,28.23
2022-09-07T12:07:45.756Z,27.92
2022-09-07T12:10:31.236Z,27.94
2022-09-07T12:13:16.788Z,28.23
2022-09-07T12:16:28.606Z,28.16
2022-09-07T12:19:04.540Z,27.90
2022-09-07T12:21:40.583Z,27.84
2022-09-07T12:24:45.863Z,27.84
2022-09-07T12:27:21.944Z,27.84
2022-09-07T12:29:52.662Z,27.88
2022-09-07T12:32:54.230Z,27.88
2022-09-07T12:35:31.158Z,27.92
2022-09-07T12:38:02.786Z,27.94
2022-09-07T12:40:35.663Z,28.30
2022-09-07T12:43:14.826Z,28.50
2022-09-07T12:45:42.283Z,28.42
2022-09-07T12:49:16.778Z,28.54
2022-09-07T13:00:10.724Z,28.72
2022-09-07T13:07:01.636Z,28.90
2022-09-07T13:09:16.549Z,28.73
2022-09-07T13:11:43.970Z,28.85
2022-09-07T13:14:14.120Z,28.84
2022-09-07T13:19:46.989Z,29.25
2022-09-07T13:22:29.236Z,29.42
2022-09-07T13:24:59.669Z,29.32
2022-09-07T13:27:26.984Z,29.30
2022-09-07T13:30:22.466Z,29.49
2022-09-07T13:33:08.360Z,29.26
2022-09-07T13:35:36.505Z,29.37
2022-09-07T13:38:04.794Z,29.41
2022-09-07T13:40:40.095Z,29.54
2022-09-07T13:43:16.463Z,29.45
2022-09-07T13:45:55.702Z,29.56
2022-09-07T13:48:51.434Z,29.74
2022-09-07T13:51:43.179Z,29.71
2022-09-07T13:54:44.037Z,29.64
2022-09-07T13:57:28.335Z,29.62
2022-09-07T13:59:56.964Z,29.65
2022-09-07T14:02:28.589Z,29.45
2022-09-07T14:05:00.373Z,29.41
2022-09-07T14:07:30.366Z,29.42
2022-09-07T14:10:25.406Z,29.57
2022-09-07T14:13:12.374Z,29.63
2022-09-07T14:15:45.749Z,29.73
2022-09-07T14:18:15.327Z,29.81
2022-09-07T14:20:53.696Z,29.79
2022-09-07T14:23:29.753Z,29.88
2022-09-07T14:26:22.025Z,29.99
2022-09-07T14:28:51.689Z,30.12
2022-09-07T14:31:20.863Z,30.16
2022-09-07T14:33:53.903Z,30.27
2022-09-07T14:36:48.252Z,30.19
2022-09-07T14:39:19.452Z,30.09
2022-09-07T14:41:47.267Z,30.02
2022-09-07T14:44:36.766Z,30.04
2022-09-07T14:47:20.455Z,30.02
2022-09-07T14:49:52.738Z,29.82
2022-09-07T14:55:47.030Z,29.49
2022-09-07T14:58:14.169Z,29.72
2022-09-07T15:00:46.838Z,29.88
2022-09-07T15:03:27.293Z,29.78
2022-09-07T15:06:00.798Z,29.90
2022-09-07T15:08:45.540Z,30.16
2022-09-07T15:11:39.509Z,30.51
2022-09-07T15:14:11.904Z,30.46
2022-09-07T15:16:42.529Z,30.53
2022-09-07T15:19:15.768Z,30.71
2022-09-07T15:21:43.962Z,30.73
2022-09-07T15:24:11.823Z,30.64
2022-09-07T15:27:02.984Z,30.82
2022-09-07T15:29:31.096Z,30.79
2022-09-07T15:32:03.937Z,30.94
2022-09-07T15:34:33.241Z,30.75
2022-09-07T15:37:02.670Z,30.58
2022-09-07T15:39:31.282Z,30.39
2022-09-07T15:42:00.587Z,30.38
2022-09-07T15:44:46.065Z,29.60
2022-09-07T15:50:00.557Z,29.42
2022-09-07T15:52:28.157Z,29.45
2022-09-07T15:54:59.284Z,29.40
2022-09-07T16:00:14.509Z,29.33
2022-09-07T16:05:31.421Z,29.24
2022-09-07T16:10:55.993Z,28.91
2022-09-07T16:13:31.868Z,28.83
2022-09-07T16:15:59.872Z,28.78
2022-09-07T16:18:31.259Z,28.66
2022-09-07T16:21:04.891Z,28.59
2022-09-07T16:23:32.215Z,28.51
2022-09-07T16:26:02.239Z,28.58
2022-09-07T16:28:30.665Z,28.55
2022-09-07T16:30:58.804Z,28.50
2022-09-07T16:33:33.055Z,28.36
2022-09-07T16:36:12.007Z,28.32
2022-09-07T16:38:44.439Z,28.33
2022-09-07T16:41:14.757Z,28.26
2022-09-07T16:43:42.392Z,28.17
2022-09-07T16:46:14.347Z,28.05
2022-09-07T16:48:41.840Z,28.02
2022-09-07T16:51:12.072Z,27.96
2022-09-07T16:53:39.734Z,27.90
2022-09-07T16:56:10.222Z,27.85
2022-09-07T16:58:42.803Z,27.82
2022-09-07T17:01:13.593Z,27.68
2022-09-07T17:03:41.073Z,27.69
2022-09-07T17:06:11.045Z,27.67
2022-09-07T17:08:39.475Z,27.63
2022-09-07T17:11:10.087Z,27.59
2022-09-07T17:13:38.724Z,27.55
2022-09-07T17:16:12.325Z,27.51
2022-09-07T17:21:36.685Z,27.38
2022-09-07T17:24:05.502Z,27.36
2022-09-07T17:26:33.183Z,27.33
2022-09-07T17:29:01.285Z,27.29
2022-09-07T17:34:21.252Z,27.26
2022-09-07T17:36:48.814Z,27.26
2022-09-07T17:39:18.117Z,27.27
2022-09-07T17:41:52.557Z,27.27
2022-09-07T17:44:21.607Z,27.21
2022-09-07T17:46:48.923Z,27.17
2022-09-07T17:49:16.832Z,27.10
2022-09-07T17:51:45.278Z,27.04
2022-09-07T17:54:17.345Z,26.94
2022-09-07T17:56:45.266Z,26.80
2022-09-07T18:02:00.962Z,26.69
2022-09-07T18:04:28.882Z,26.43
2022-09-07T18:06:56.275Z,25.96
2022-09-07T18:09:23.463Z,24.56
2022-09-07T18:11:51.065Z,24.27
2022-09-07T18:14:19.160Z,24.51
2022-09-07T18:16:49.670Z,24.64
2022-09-07T18:19:18.653Z,23.97
2022-09-07T18:21:47.761Z,23.72
2022-09-07T18:24:19.304Z,23.70
2022-09-07T18:26:52.265Z,23.71
2022-09-07T18:29:31.359Z,24.13
2022-09-07T18:32:01.211Z,24.24
2022-09-07T18:34:28.989Z,24.56
2022-09-07T18:36:58.193Z,23.83
2022-09-07T18:39:26.361Z,23.96
2022-09-07T18:41:54.298Z,24.45
2022-09-07T18:47:08.972Z,24.66
2022-09-07T18:49:36.143Z,24.81
2022-09-07T18:54:51.254Z,25.48
2022-09-07T18:57:18.931Z,25.62
2022-09-07T18:59:46.324Z,25.66
2022-09-07T19:02:14.254Z,25.74
2022-09-07T19:07:30.091Z,25.81
2022-09-07T19:09:58.129Z,25.17
2022-09-07T19:12:25.310Z,24.50
2022-09-07T19:14:52.514Z,23.90
2022-09-07T19:17:19.797Z,23.54
2022-09-07T19:19:48.333Z,23.21
2022-09-07T19:22:15.569Z,23.09
2022-09-07T19:24:42.772Z,22.97
2022-09-07T19:27:09.943Z,23.06
2022-09-07T19:29:37.132Z,23.24
2022-09-07T19:32:04.493Z,23.57
2022-09-07T19:34:42.554Z,24.19
2022-09-07T19:37:11.774Z,24.72
2022-09-07T19:39:39.731Z,24.84
2022-09-07T19:42:07.355Z,24.54
2022-09-07T19:44:35.067Z,24.34
2022-09-07T19:47:02.343Z,24.37
2022-09-07T19:49:30.452Z,24.25
2022-09-07T19:51:57.772Z,24.19
2022-09-07T19:54:25.272Z,24.21
2022-09-07T19:56:52.463Z,24.35
2022-09-07T19:59:20.146Z,24.69
2022-09-07T20:01:49.401Z,25.04
2022-09-07T20:04:20.539Z,25.25
2022-09-07T20:06:50.159Z,25.44
2022-09-07T20:09:18.630Z,25.48
2022-09-07T20:11:47.542Z,25.43
2022-09-07T20:14:16.143Z,25.52
2022-09-07T20:16:43.758Z,25.63
2022-09-07T20:19:14.352Z,25.65
2022-09-07T20:21:42.613Z,25.27
2022-09-07T20:24:14.427Z,25.41
2022-09-07T20:26:41.729Z,25.56
2022-09-07T20:32:00.953Z,25.40
2022-09-07T20:34:28.965Z,25.17
2022-09-07T20:36:56.983Z,25.31
2022-09-07T20:39:24.637Z,25.47
2022-09-07T20:41:51.882Z,25.24
2022-09-07T20:44:19.264Z,24.80
2022-09-07T20:46:46.656Z,24.58
2022-09-07T20:49:13.953Z,24.51
2022-09-07T20:51:41.283Z,24.43
2022-09-07T20:54:08.523Z,24.63
2022-09-07T20:56:35.936Z,24.91
2022-09-07T20:59:03.963Z,25.15
2022-09-07T21:01:32.584Z,25.01
2022-09-07T21:04:01.136Z,24.99
2022-09-07T21:06:29.477Z,25.23
2022-09-07T21:08:57.324Z,25.35
2022-09-07T21:11:27.574Z,25.01
2022-09-07T21:14:00.125Z,24.17
2022-09-07T21:16:28.391Z,23.83
2022-09-07T21:18:57.975Z,23.63
2022-09-07T21:21:27.295Z,23.42
2022-09-07T21:23:56.765Z,23.52
2022-09-07T21:26:24.920Z,23.79
2022-09-07T21:29:00.156Z,24.24
2022-09-07T21:31:29.219Z,24.64
2022-09-07T21:33:58.871Z,24.54
2022-09-07T21:36:26.941Z,23.74
2022-09-07T21:38:54.962Z,23.06
2022-09-07T21:41:24.386Z,23.08
2022-09-07T21:43:59.003Z,23.35
2022-09-07T21:46:28.201Z,23.69
2022-09-07T21:48:56.455Z,24.23
2022-09-07T21:51:24.433Z,24.19
2022-09-07T21:53:55.935Z,24.00
2022-09-07T21:56:23.571Z,23.87
2022-09-07T21:58:55.465Z,24.06
2022-09-07T22:01:24.037Z,24.49
2022-09-07T22:04:06.859Z,24.77
2022-09-07T22:06:37.719Z,24.44
2022-09-07T22:09:05.203Z,24.24
2022-09-07T22:11:32.481Z,24.25
2022-09-07T22:16:31.259Z,24.69
2022-09-07T22:18:58.971Z,24.24
2022-09-07T22:21:27.951Z,24.03
2022-09-07T22:24:03.005Z,23.89
2022-09-07T22:26:37.558Z,23.38
2022-09-07T22:29:06.850Z,22.88
2022-09-07T22:31:36.423Z,22.97
2022-09-07T22:34:07.967Z,23.08
2022-09-07T22:36:44.557Z,23.51
2022-09-07T22:39:15.139Z,23.93
2022-09-07T22:41:43.776Z,23.57
2022-09-07T22:44:15.960Z,23.38
2022-09-07T22:46:44.948Z,23.35
2022-09-07T22:49:14.597Z,23.19
2022-09-07T22:51:42.260Z,23.05
2022-09-07T22:54:09.617Z,23.54
2022-09-07T22:56:37.236Z,23.73
2022-09-07T22:59:07.525Z,23.39
2022-09-07T23:01:36.092Z,23.02
2022-09-07T23:04:04.270Z,22.75
2022-09-07T23:06:37.478Z,22.87
2022-09-07T23:09:06.803Z,23.24
2022-09-07T23:11:34.152Z,23.75
2022-09-07T23:14:05.947Z,23.66
2022-09-07T23:16:33.295Z,23.72
2022-09-07T23:19:00.866Z,24.15
2022-09-07T23:21:28.068Z,24.44
2022-09-07T23:23:58.252Z,24.39
2022-09-07T23:26:28.763Z,24.17
2022-09-07T23:29:00.227Z,24.27
2022-09-07T23:31:29.012Z,24.56
2022-09-07T23:33:57.437Z,24.72
2022-09-07T23:36:25.333Z,24.75
2022-09-07T23:38:55.366Z,24.80
2022-09-07T23:41:24.212Z,24.75
2022-09-07T23:43:52.487Z,24.62
2022-09-07T23:46:19.951Z,24.80
2022-09-07T23:48:48.539Z,24.88
2022-09-07T23:51:21.227Z,24.91
2022-09-07T23:53:51.241Z,24.96
2022-09-07T23:56:18.391Z,24.99
2022-09-07T23:58:45.596Z,25.02
